sensor_id;sensor_type;location;lat;lon;timestamp;temperature;humidity
3418;DHT22;1722;51.316;12.370;2022-10-16T00:01:35;16.90;94.70
3418;DHT22;1722;51.316;12.370;2022-10-16T00:04:03;16.80;95.10
3418;DHT22;1722;51.316;12.370;2022-10-16T00:06:31;16.70;95.20
3418;DHT22;1722;51.316;12.370;2022-10-16T00:09:00;16.70;95.30
3418;DHT22;1722;51.316;12.370;2022-10-16T00:11:30;16.60;95.60
3418;DHT22;1722;51.316;12.370;2022-10-16T00:14:01;16.40;95.90
3418;DHT22;1722;51.316;12.370;2022-10-16T00:16:29;16.40;96.20
3418;DHT22;1722;51.316;12.370;2022-10-16T00:18:57;16.20;96.40
3418;DHT22;1722;51.316;12.370;2022-10-16T00:21:28;16.20;96.50
3418;DHT22;1722;51.316;12.370;2022-10-16T00:23:57;16.10;96.70
3418;DHT22;1722;51.316;12.370;2022-10-16T00:26:28;16.20;96.70
3418;DHT22;1722;51.316;12.370;2022-10-16T00:28:56;16.30;96.60
3418;DHT22;1722;51.316;12.370;2022-10-16T00:31:24;16.30;96.50
3418;DHT22;1722;51.316;12.370;2022-10-16T00:33:51;16.30;96.30
3418;DHT22;1722;51.316;12.370;2022-10-16T00:36:20;16.30;96.40
3418;DHT22;1722;51.316;12.370;2022-10-16T00:38:51;16.30;96.40
3418;DHT22;1722;51.316;12.370;2022-10-16T00:41:21;16.20;96.60
3418;DHT22;1722;51.316;12.370;2022-10-16T00:43:52;16.20;96.60
3418;DHT22;1722;51.316;12.370;2022-10-16T00:46:22;16.20;96.60
3418;DHT22;1722;51.316;12.370;2022-10-16T00:48:52;16.30;96.50
3418;DHT22;1722;51.316;12.370;2022-10-16T00:51:25;16.30;96.50
3418;DHT22;1722;51.316;12.370;2022-10-16T00:53:55;16.30;96.40
3418;DHT22;1722;51.316;12.370;2022-10-16T00:56:23;16.40;96.50
3418;DHT22;1722;51.316;12.370;2022-10-16T00:58:52;16.40;96.40
3418;DHT22;1722;51.316;12.370;2022-10-16T01:01:19;16.40;96.30
3418;DHT22;1722;51.316;12.370;2022-10-16T01:03:47;16.50;96.20
3418;DHT22;1722;51.316;12.370;2022-10-16T01:06:25;16.60;96.00
3418;DHT22;1722;51.316;12.370;2022-10-16T01:09:08;16.70;95.80
3418;DHT22;1722;51.316;12.370;2022-10-16T01:11:44;16.70;95.70
3418;DHT22;1722;51.316;12.370;2022-10-16T01:14:19;16.70;95.70
3418;DHT22;1722;51.316;12.370;2022-10-16T01:16:53;16.70;95.60
3418;DHT22;1722;51.316;12.370;2022-10-16T01:19:36;16.70;95.50
3418;DHT22;1722;51.316;12.370;2022-10-16T01:22:09;16.60;95.80
3418;DHT22;1722;51.316;12.370;2022-10-16T01:24:40;16.60;95.90
3418;DHT22;1722;51.316;12.370;2022-10-16T01:27:12;16.80;95.60
3418;DHT22;1722;51.316;12.370;2022-10-16T01:29:48;16.80;95.60
3418;DHT22;1722;51.316;12.370;2022-10-16T01:32:24;16.80;95.50
3418;DHT22;1722;51.316;12.370;2022-10-16T01:34:59;16.90;95.30
3418;DHT22;1722;51.316;12.370;2022-10-16T01:37:35;17.00;95.20
3418;DHT22;1722;51.316;12.370;2022-10-16T01:40:07;16.90;95.40
3418;DHT22;1722;51.316;12.370;2022-10-16T01:42:39;16.90;95.20
3418;DHT22;1722;51.316;12.370;2022-10-16T01:45:09;17.00;95.00
3418;DHT22;1722;51.316;12.370;2022-10-16T01:47:39;17.00;95.00
3418;DHT22;1722;51.316;12.370;2022-10-16T01:50:08;17.00;95.00
3418;DHT22;1722;51.316;12.370;2022-10-16T01:52:39;17.10;94.60
3418;DHT22;1722;51.316;12.370;2022-10-16T01:55:09;17.00;95.20
3418;DHT22;1722;51.316;12.370;2022-10-16T01:57:42;16.90;95.40
3418;DHT22;1722;51.316;12.370;2022-10-16T02:00:12;16.70;95.80
3418;DHT22;1722;51.316;12.370;2022-10-16T02:02:42;16.70;96.10
3418;DHT22;1722;51.316;12.370;2022-10-16T02:05:16;16.70;95.90
3418;DHT22;1722;51.316;12.370;2022-10-16T02:07:45;16.70;95.90
3418;DHT22;1722;51.316;12.370;2022-10-16T02:10:13;16.80;95.30
3418;DHT22;1722;51.316;12.370;2022-10-16T02:12:45;16.90;95.30
3418;DHT22;1722;51.316;12.370;2022-10-16T02:15:15;16.90;94.70
3418;DHT22;1722;51.316;12.370;2022-10-16T02:17:42;17.00;94.80
3418;DHT22;1722;51.316;12.370;2022-10-16T02:20:10;17.10;94.50
3418;DHT22;1722;51.316;12.370;2022-10-16T02:22:40;17.10;94.60
3418;DHT22;1722;51.316;12.370;2022-10-16T02:25:10;17.20;94.30
3418;DHT22;1722;51.316;12.370;2022-10-16T02:27:43;17.10;94.70
3418;DHT22;1722;51.316;12.370;2022-10-16T02:30:16;17.00;94.90
3418;DHT22;1722;51.316;12.370;2022-10-16T02:32:46;17.10;94.90
3418;DHT22;1722;51.316;12.370;2022-10-16T02:35:17;16.90;95.30
3418;DHT22;1722;51.316;12.370;2022-10-16T02:37:45;17.00;94.60
3418;DHT22;1722;51.316;12.370;2022-10-16T02:40:13;17.00;95.30
3418;DHT22;1722;51.316;12.370;2022-10-16T02:42:43;16.80;95.60
3418;DHT22;1722;51.316;12.370;2022-10-16T02:45:11;16.80;95.60
3418;DHT22;1722;51.316;12.370;2022-10-16T02:47:39;16.60;95.90
3418;DHT22;1722;51.316;12.370;2022-10-16T02:50:07;16.70;95.80
3418;DHT22;1722;51.316;12.370;2022-10-16T02:52:34;16.60;96.00
3418;DHT22;1722;51.316;12.370;2022-10-16T02:55:02;16.60;96.10
3418;DHT22;1722;51.316;12.370;2022-10-16T02:57:29;16.70;95.30
3418;DHT22;1722;51.316;12.370;2022-10-16T02:59:59;16.80;94.80
3418;DHT22;1722;51.316;12.370;2022-10-16T03:02:26;16.90;94.80
3418;DHT22;1722;51.316;12.370;2022-10-16T03:04:54;17.00;94.50
3418;DHT22;1722;51.316;12.370;2022-10-16T03:07:21;17.00;94.30
3418;DHT22;1722;51.316;12.370;2022-10-16T03:09:49;17.10;94.50
3418;DHT22;1722;51.316;12.370;2022-10-16T03:12:16;17.10;94.10
3418;DHT22;1722;51.316;12.370;2022-10-16T03:14:43;17.10;94.00
3418;DHT22;1722;51.316;12.370;2022-10-16T03:17:12;17.20;94.00
3418;DHT22;1722;51.316;12.370;2022-10-16T03:19:42;17.20;94.00
3418;DHT22;1722;51.316;12.370;2022-10-16T03:22:10;17.20;93.80
3418;DHT22;1722;51.316;12.370;2022-10-16T03:24:37;17.20;93.80
3418;DHT22;1722;51.316;12.370;2022-10-16T03:27:05;17.20;93.70
3418;DHT22;1722;51.316;12.370;2022-10-16T03:29:33;17.20;93.80
3418;DHT22;1722;51.316;12.370;2022-10-16T03:32:00;17.20;93.80
3418;DHT22;1722;51.316;12.370;2022-10-16T03:34:30;17.10;94.10
3418;DHT22;1722;51.316;12.370;2022-10-16T03:36:57;17.10;94.60
3418;DHT22;1722;51.316;12.370;2022-10-16T03:39:24;17.00;94.90
3418;DHT22;1722;51.316;12.370;2022-10-16T03:41:53;17.00;94.50
3418;DHT22;1722;51.316;12.370;2022-10-16T03:44:20;17.00;94.40
3418;DHT22;1722;51.316;12.370;2022-10-16T03:46:48;17.00;94.20
3418;DHT22;1722;51.316;12.370;2022-10-16T03:49:15;17.00;94.30
3418;DHT22;1722;51.316;12.370;2022-10-16T03:51:44;17.10;94.00
3418;DHT22;1722;51.316;12.370;2022-10-16T03:54:12;17.10;93.80
3418;DHT22;1722;51.316;12.370;2022-10-16T03:56:39;17.10;93.80
3418;DHT22;1722;51.316;12.370;2022-10-16T03:59:07;17.10;93.80
3418;DHT22;1722;51.316;12.370;2022-10-16T04:01:34;17.10;93.80
3418;DHT22;1722;51.316;12.370;2022-10-16T04:04:01;17.10;93.80
3418;DHT22;1722;51.316;12.370;2022-10-16T04:06:29;17.10;94.10
3418;DHT22;1722;51.316;12.370;2022-10-16T04:08:57;17.10;93.80
3418;DHT22;1722;51.316;12.370;2022-10-16T04:11:25;17.10;94.20
3418;DHT22;1722;51.316;12.370;2022-10-16T04:13:52;17.00;94.20
3418;DHT22;1722;51.316;12.370;2022-10-16T04:16:20;17.10;94.20
3418;DHT22;1722;51.316;12.370;2022-10-16T04:18:47;17.10;94.10
3418;DHT22;1722;51.316;12.370;2022-10-16T04:21:14;17.00;94.40
3418;DHT22;1722;51.316;12.370;2022-10-16T04:23:42;17.00;94.60
3418;DHT22;1722;51.316;12.370;2022-10-16T04:26:11;16.90;95.00
3418;DHT22;1722;51.316;12.370;2022-10-16T04:28:38;16.90;94.50
3418;DHT22;1722;51.316;12.370;2022-10-16T04:31:06;17.00;94.20
3418;DHT22;1722;51.316;12.370;2022-10-16T04:33:34;17.00;94.20
3418;DHT22;1722;51.316;12.370;2022-10-16T04:36:03;16.90;95.00
3418;DHT22;1722;51.316;12.370;2022-10-16T04:38:30;16.60;95.50
3418;DHT22;1722;51.316;12.370;2022-10-16T04:40:58;16.70;94.90
3418;DHT22;1722;51.316;12.370;2022-10-16T04:43:27;16.80;94.90
3418;DHT22;1722;51.316;12.370;2022-10-16T04:45:54;16.70;95.20
3418;DHT22;1722;51.316;12.370;2022-10-16T04:48:22;16.70;95.00
3418;DHT22;1722;51.316;12.370;2022-10-16T04:50:50;16.70;95.00
3418;DHT22;1722;51.316;12.370;2022-10-16T04:53:17;16.60;95.60
3418;DHT22;1722;51.316;12.370;2022-10-16T04:55:45;16.50;95.50
3418;DHT22;1722;51.316;12.370;2022-10-16T04:58:12;16.60;95.20
3418;DHT22;1722;51.316;12.370;2022-10-16T05:00:41;16.60;94.90
3418;DHT22;1722;51.316;12.370;2022-10-16T05:03:09;16.60;95.30
3418;DHT22;1722;51.316;12.370;2022-10-16T05:05:36;16.60;95.10
3418;DHT22;1722;51.316;12.370;2022-10-16T05:08:04;16.60;95.10
3418;DHT22;1722;51.316;12.370;2022-10-16T05:10:31;16.70;94.90
3418;DHT22;1722;51.316;12.370;2022-10-16T05:12:58;16.70;94.70
3418;DHT22;1722;51.316;12.370;2022-10-16T05:15:26;16.70;94.90
3418;DHT22;1722;51.316;12.370;2022-10-16T05:17:56;16.60;95.20
3418;DHT22;1722;51.316;12.370;2022-10-16T05:20:23;16.70;94.60
3418;DHT22;1722;51.316;12.370;2022-10-16T05:22:51;16.80;94.40
3418;DHT22;1722;51.316;12.370;2022-10-16T05:25:18;16.60;94.90
3418;DHT22;1722;51.316;12.370;2022-10-16T05:27:47;16.70;94.70
3418;DHT22;1722;51.316;12.370;2022-10-16T05:30:15;16.70;94.40
3418;DHT22;1722;51.316;12.370;2022-10-16T05:32:46;16.70;94.70
3418;DHT22;1722;51.316;12.370;2022-10-16T05:35:16;16.70;94.50
3418;DHT22;1722;51.316;12.370;2022-10-16T05:37:44;16.60;94.70
3418;DHT22;1722;51.316;12.370;2022-10-16T05:40:11;16.60;94.80
3418;DHT22;1722;51.316;12.370;2022-10-16T05:42:39;16.60;94.50
3418;DHT22;1722;51.316;12.370;2022-10-16T05:45:09;16.70;94.60
3418;DHT22;1722;51.316;12.370;2022-10-16T05:47:37;16.60;94.90
3418;DHT22;1722;51.316;12.370;2022-10-16T05:50:04;16.60;94.80
3418;DHT22;1722;51.316;12.370;2022-10-16T05:52:33;16.50;95.10
3418;DHT22;1722;51.316;12.370;2022-10-16T05:55:01;16.30;95.50
3418;DHT22;1722;51.316;12.370;2022-10-16T05:57:28;16.40;95.40
3418;DHT22;1722;51.316;12.370;2022-10-16T05:59:56;16.40;95.30
3418;DHT22;1722;51.316;12.370;2022-10-16T06:02:23;16.40;95.40
3418;DHT22;1722;51.316;12.370;2022-10-16T06:04:51;16.40;95.40
3418;DHT22;1722;51.316;12.370;2022-10-16T06:07:20;16.20;95.90
3418;DHT22;1722;51.316;12.370;2022-10-16T06:09:49;16.30;95.40
3418;DHT22;1722;51.316;12.370;2022-10-16T06:12:17;16.40;95.50
3418;DHT22;1722;51.316;12.370;2022-10-16T06:14:45;16.50;95.00
3418;DHT22;1722;51.316;12.370;2022-10-16T06:17:13;16.50;94.80
3418;DHT22;1722;51.316;12.370;2022-10-16T06:19:41;16.60;94.80
3418;DHT22;1722;51.316;12.370;2022-10-16T06:22:08;16.50;95.20
3418;DHT22;1722;51.316;12.370;2022-10-16T06:24:36;16.50;95.10
3418;DHT22;1722;51.316;12.370;2022-10-16T06:27:05;16.40;95.40
3418;DHT22;1722;51.316;12.370;2022-10-16T06:29:32;16.40;95.50
3418;DHT22;1722;51.316;12.370;2022-10-16T06:31:59;16.50;95.20
3418;DHT22;1722;51.316;12.370;2022-10-16T06:34:27;16.60;94.60
3418;DHT22;1722;51.316;12.370;2022-10-16T06:36:54;16.50;95.20
3418;DHT22;1722;51.316;12.370;2022-10-16T06:39:22;16.50;95.40
3418;DHT22;1722;51.316;12.370;2022-10-16T06:41:49;16.60;95.20
3418;DHT22;1722;51.316;12.370;2022-10-16T06:44:18;16.60;95.00
3418;DHT22;1722;51.316;12.370;2022-10-16T06:46:45;16.60;95.20
3418;DHT22;1722;51.316;12.370;2022-10-16T06:49:13;16.50;95.40
3418;DHT22;1722;51.316;12.370;2022-10-16T06:51:47;16.50;95.40
3418;DHT22;1722;51.316;12.370;2022-10-16T06:54:15;16.70;94.80
3418;DHT22;1722;51.316;12.370;2022-10-16T06:56:42;16.50;95.60
3418;DHT22;1722;51.316;12.370;2022-10-16T06:59:10;16.50;95.70
3418;DHT22;1722;51.316;12.370;2022-10-16T07:01:39;16.50;95.70
3418;DHT22;1722;51.316;12.370;2022-10-16T07:04:06;16.50;95.70
3418;DHT22;1722;51.316;12.370;2022-10-16T07:06:34;16.50;95.60
3418;DHT22;1722;51.316;12.370;2022-10-16T07:09:04;16.50;95.80
3418;DHT22;1722;51.316;12.370;2022-10-16T07:11:32;16.60;95.60
3418;DHT22;1722;51.316;12.370;2022-10-16T07:14:00;16.70;95.70
3418;DHT22;1722;51.316;12.370;2022-10-16T07:16:29;16.60;95.80
3418;DHT22;1722;51.316;12.370;2022-10-16T07:18:59;16.70;95.20
3418;DHT22;1722;51.316;12.370;2022-10-16T07:21:29;16.80;94.90
3418;DHT22;1722;51.316;12.370;2022-10-16T07:23:58;16.80;95.70
3418;DHT22;1722;51.316;12.370;2022-10-16T07:26:28;16.80;95.90
3418;DHT22;1722;51.316;12.370;2022-10-16T07:28:57;16.70;96.20
3418;DHT22;1722;51.316;12.370;2022-10-16T07:31:24;16.60;96.50
3418;DHT22;1722;51.316;12.370;2022-10-16T07:33:52;16.60;96.30
3418;DHT22;1722;51.316;12.370;2022-10-16T07:36:21;16.80;96.10
3418;DHT22;1722;51.316;12.370;2022-10-16T07:38:49;16.90;96.10
3418;DHT22;1722;51.316;12.370;2022-10-16T07:41:18;16.80;96.10
3418;DHT22;1722;51.316;12.370;2022-10-16T07:43:47;16.80;96.00
3418;DHT22;1722;51.316;12.370;2022-10-16T07:46:16;16.80;96.10
3418;DHT22;1722;51.316;12.370;2022-10-16T07:48:44;16.80;96.10
3418;DHT22;1722;51.316;12.370;2022-10-16T07:51:16;16.80;96.30
3418;DHT22;1722;51.316;12.370;2022-10-16T07:53:45;16.80;96.20
3418;DHT22;1722;51.316;12.370;2022-10-16T07:56:14;16.90;96.10
3418;DHT22;1722;51.316;12.370;2022-10-16T07:58:42;17.00;95.90
3418;DHT22;1722;51.316;12.370;2022-10-16T08:01:11;17.00;95.70
3418;DHT22;1722;51.316;12.370;2022-10-16T08:03:41;17.10;95.80
3418;DHT22;1722;51.316;12.370;2022-10-16T08:06:09;17.20;95.60
3418;DHT22;1722;51.316;12.370;2022-10-16T08:08:36;17.30;95.50
3418;DHT22;1722;51.316;12.370;2022-10-16T08:11:05;17.40;95.40
3418;DHT22;1722;51.316;12.370;2022-10-16T08:13:33;17.40;95.30
3418;DHT22;1722;51.316;12.370;2022-10-16T08:16:00;17.40;95.00
3418;DHT22;1722;51.316;12.370;2022-10-16T08:18:30;17.50;95.10
3418;DHT22;1722;51.316;12.370;2022-10-16T08:20:59;17.50;94.90
3418;DHT22;1722;51.316;12.370;2022-10-16T08:23:27;17.50;94.80
3418;DHT22;1722;51.316;12.370;2022-10-16T08:25:56;17.60;94.70
3418;DHT22;1722;51.316;12.370;2022-10-16T08:28:29;17.60;94.60
3418;DHT22;1722;51.316;12.370;2022-10-16T08:31:05;17.70;94.60
3418;DHT22;1722;51.316;12.370;2022-10-16T08:33:32;17.70;94.40
3418;DHT22;1722;51.316;12.370;2022-10-16T08:36:01;17.70;94.30
3418;DHT22;1722;51.316;12.370;2022-10-16T08:38:28;17.70;94.20
3418;DHT22;1722;51.316;12.370;2022-10-16T08:41:10;17.80;94.00
3418;DHT22;1722;51.316;12.370;2022-10-16T08:44:07;17.90;93.90
3418;DHT22;1722;51.316;12.370;2022-10-16T08:46:43;18.00;93.90
3418;DHT22;1722;51.316;12.370;2022-10-16T08:49:13;18.00;93.80
3418;DHT22;1722;51.316;12.370;2022-10-16T08:51:41;18.10;93.90
3418;DHT22;1722;51.316;12.370;2022-10-16T08:54:21;18.20;93.90
3418;DHT22;1722;51.316;12.370;2022-10-16T08:56:50;18.20;93.40
3418;DHT22;1722;51.316;12.370;2022-10-16T08:59:19;18.30;93.50
3418;DHT22;1722;51.316;12.370;2022-10-16T09:01:50;18.30;93.10
3418;DHT22;1722;51.316;12.370;2022-10-16T09:07:34;18.40;92.90
3418;DHT22;1722;51.316;12.370;2022-10-16T09:10:16;18.30;93.00
3418;DHT22;1722;51.316;12.370;2022-10-16T09:12:53;18.30;93.00
3418;DHT22;1722;51.316;12.370;2022-10-16T09:15:29;18.30;93.00
3418;DHT22;1722;51.316;12.370;2022-10-16T09:18:03;18.40;93.00
3418;DHT22;1722;51.316;12.370;2022-10-16T09:20:38;18.50;92.80
3418;DHT22;1722;51.316;12.370;2022-10-16T09:23:15;18.60;93.00
3418;DHT22;1722;51.316;12.370;2022-10-16T09:25:45;18.60;93.00
3418;DHT22;1722;51.316;12.370;2022-10-16T09:28:14;18.70;92.70
3418;DHT22;1722;51.316;12.370;2022-10-16T09:30:43;18.70;92.90
3418;DHT22;1722;51.316;12.370;2022-10-16T09:33:12;18.70;92.60
3418;DHT22;1722;51.316;12.370;2022-10-16T09:35:42;18.70;92.80
3418;DHT22;1722;51.316;12.370;2022-10-16T09:38:22;18.90;92.70
3418;DHT22;1722;51.316;12.370;2022-10-16T09:40:50;18.90;92.60
3418;DHT22;1722;51.316;12.370;2022-10-16T09:43:22;19.00;92.40
3418;DHT22;1722;51.316;12.370;2022-10-16T09:45:59;18.90;92.50
3418;DHT22;1722;51.316;12.370;2022-10-16T09:48:30;19.00;92.40
3418;DHT22;1722;51.316;12.370;2022-10-16T09:51:01;19.10;92.30
3418;DHT22;1722;51.316;12.370;2022-10-16T09:53:39;19.20;92.30
3418;DHT22;1722;51.316;12.370;2022-10-16T09:56:09;19.20;92.10
3418;DHT22;1722;51.316;12.370;2022-10-16T09:58:42;19.10;91.90
3418;DHT22;1722;51.316;12.370;2022-10-16T10:01:14;19.10;92.00
3418;DHT22;1722;51.316;12.370;2022-10-16T10:03:43;19.20;92.00
3418;DHT22;1722;51.316;12.370;2022-10-16T10:06:21;19.20;92.10
3418;DHT22;1722;51.316;12.370;2022-10-16T10:09:00;19.30;91.90
3418;DHT22;1722;51.316;12.370;2022-10-16T10:11:49;19.40;91.60
3418;DHT22;1722;51.316;12.370;2022-10-16T10:14:20;19.60;91.50
3418;DHT22;1722;51.316;12.370;2022-10-16T10:16:51;19.70;91.40
3418;DHT22;1722;51.316;12.370;2022-10-16T10:19:20;19.80;91.40
3418;DHT22;1722;51.316;12.370;2022-10-16T10:21:49;19.70;91.30
3418;DHT22;1722;51.316;12.370;2022-10-16T10:24:18;19.80;91.00
3418;DHT22;1722;51.316;12.370;2022-10-16T10:26:54;19.80;90.90
3418;DHT22;1722;51.316;12.370;2022-10-16T10:29:31;19.90;91.30
3418;DHT22;1722;51.316;12.370;2022-10-16T10:32:15;19.90;90.90
3418;DHT22;1722;51.316;12.370;2022-10-16T10:34:54;20.00;90.90
3418;DHT22;1722;51.316;12.370;2022-10-16T10:37:40;19.90;90.60
3418;DHT22;1722;51.316;12.370;2022-10-16T10:40:18;19.90;90.70
3418;DHT22;1722;51.316;12.370;2022-10-16T10:42:53;20.00;90.70
3418;DHT22;1722;51.316;12.370;2022-10-16T10:45:26;20.00;90.60
3418;DHT22;1722;51.316;12.370;2022-10-16T10:48:19;20.10;90.60
3418;DHT22;1722;51.316;12.370;2022-10-16T10:50:51;20.00;90.70
3418;DHT22;1722;51.316;12.370;2022-10-16T10:53:33;20.00;90.60
3418;DHT22;1722;51.316;12.370;2022-10-16T10:56:14;20.00;90.70
3418;DHT22;1722;51.316;12.370;2022-10-16T10:58:58;20.00;90.60
3418;DHT22;1722;51.316;12.370;2022-10-16T11:01:35;20.00;90.60
3418;DHT22;1722;51.316;12.370;2022-10-16T11:04:31;19.80;90.50
3418;DHT22;1722;51.316;12.370;2022-10-16T11:07:03;19.80;90.50
3418;DHT22;1722;51.316;12.370;2022-10-16T11:09:34;19.80;90.60
3418;DHT22;1722;51.316;12.370;2022-10-16T11:12:08;19.70;90.60
3418;DHT22;1722;51.316;12.370;2022-10-16T11:14:42;19.80;90.70
3418;DHT22;1722;51.316;12.370;2022-10-16T11:17:15;19.80;90.70
3418;DHT22;1722;51.316;12.370;2022-10-16T11:19:48;19.80;90.80
3418;DHT22;1722;51.316;12.370;2022-10-16T11:22:21;19.80;90.70
3418;DHT22;1722;51.316;12.370;2022-10-16T11:24:55;19.80;90.50
3418;DHT22;1722;51.316;12.370;2022-10-16T11:27:34;19.80;90.70
3418;DHT22;1722;51.316;12.370;2022-10-16T11:30:05;19.80;90.70
3418;DHT22;1722;51.316;12.370;2022-10-16T11:32:39;19.90;90.60
3418;DHT22;1722;51.316;12.370;2022-10-16T11:35:17;19.90;90.60
3418;DHT22;1722;51.316;12.370;2022-10-16T11:37:48;20.00;90.40
3418;DHT22;1722;51.316;12.370;2022-10-16T11:40:22;20.00;90.20
3418;DHT22;1722;51.316;12.370;2022-10-16T11:42:54;19.90;90.30
3418;DHT22;1722;51.316;12.370;2022-10-16T11:45:31;19.90;90.40
3418;DHT22;1722;51.316;12.370;2022-10-16T11:48:04;19.90;90.30
3418;DHT22;1722;51.316;12.370;2022-10-16T11:50:39;20.00;90.40
3418;DHT22;1722;51.316;12.370;2022-10-16T11:53:16;20.00;90.20
3418;DHT22;1722;51.316;12.370;2022-10-16T11:55:47;20.10;90.30
3418;DHT22;1722;51.316;12.370;2022-10-16T11:58:22;20.10;90.50
3418;DHT22;1722;51.316;12.370;2022-10-16T12:00:58;20.20;90.20
3418;DHT22;1722;51.316;12.370;2022-10-16T12:03:29;20.20;90.50
3418;DHT22;1722;51.316;12.370;2022-10-16T12:06:10;20.20;90.00
3418;DHT22;1722;51.316;12.370;2022-10-16T12:08:40;20.20;90.20
3418;DHT22;1722;51.316;12.370;2022-10-16T12:11:19;20.20;90.20
3418;DHT22;1722;51.316;12.370;2022-10-16T12:13:47;20.20;90.00
3418;DHT22;1722;51.316;12.370;2022-10-16T12:16:21;20.30;90.00
3418;DHT22;1722;51.316;12.370;2022-10-16T12:18:49;20.30;90.30
3418;DHT22;1722;51.316;12.370;2022-10-16T12:21:31;20.30;90.00
3418;DHT22;1722;51.316;12.370;2022-10-16T12:24:00;20.30;90.10
3418;DHT22;1722;51.316;12.370;2022-10-16T12:26:32;20.30;90.10
3418;DHT22;1722;51.316;12.370;2022-10-16T12:29:13;20.20;90.30
3418;DHT22;1722;51.316;12.370;2022-10-16T12:31:44;20.20;90.40
3418;DHT22;1722;51.316;12.370;2022-10-16T12:34:26;20.00;90.70
3418;DHT22;1722;51.316;12.370;2022-10-16T12:36:56;20.00;90.90
3418;DHT22;1722;51.316;12.370;2022-10-16T12:39:35;20.00;91.00
3418;DHT22;1722;51.316;12.370;2022-10-16T12:42:05;20.10;90.90
3418;DHT22;1722;51.316;12.370;2022-10-16T12:44:34;20.20;90.50
3418;DHT22;1722;51.316;12.370;2022-10-16T12:47:02;20.30;90.40
3418;DHT22;1722;51.316;12.370;2022-10-16T12:49:32;20.30;90.30
3418;DHT22;1722;51.316;12.370;2022-10-16T12:52:04;20.30;90.30
3418;DHT22;1722;51.316;12.370;2022-10-16T12:54:36;20.30;90.40
3418;DHT22;1722;51.316;12.370;2022-10-16T12:57:27;20.20;90.60
3418;DHT22;1722;51.316;12.370;2022-10-16T13:00:03;20.20;90.60
3418;DHT22;1722;51.316;12.370;2022-10-16T13:05:41;20.20;90.30
3418;DHT22;1722;51.316;12.370;2022-10-16T13:08:25;20.10;90.10
3418;DHT22;1722;51.316;12.370;2022-10-16T13:11:04;20.10;90.30
3418;DHT22;1722;51.316;12.370;2022-10-16T13:13:46;20.00;90.30
3418;DHT22;1722;51.316;12.370;2022-10-16T13:16:24;20.20;90.40
3418;DHT22;1722;51.316;12.370;2022-10-16T13:19:02;20.40;89.10
3418;DHT22;1722;51.316;12.370;2022-10-16T13:21:39;20.60;88.60
3418;DHT22;1722;51.316;12.370;2022-10-16T13:24:23;20.60;88.50
3418;DHT22;1722;51.316;12.370;2022-10-16T13:26:59;20.70;88.30
3418;DHT22;1722;51.316;12.370;2022-10-16T13:29:30;20.90;87.70
3418;DHT22;1722;51.316;12.370;2022-10-16T13:31:59;21.10;86.60
3418;DHT22;1722;51.316;12.370;2022-10-16T13:34:28;21.20;86.50
3418;DHT22;1722;51.316;12.370;2022-10-16T13:36:56;21.20;86.40
3418;DHT22;1722;51.316;12.370;2022-10-16T13:39:26;21.50;85.90
3418;DHT22;1722;51.316;12.370;2022-10-16T13:42:05;21.70;84.50
3418;DHT22;1722;51.316;12.370;2022-10-16T13:44:36;21.90;84.10
3418;DHT22;1722;51.316;12.370;2022-10-16T13:47:15;22.10;83.50
3418;DHT22;1722;51.316;12.370;2022-10-16T13:49:43;22.30;82.60
3418;DHT22;1722;51.316;12.370;2022-10-16T13:52:18;22.30;82.70
3418;DHT22;1722;51.316;12.370;2022-10-16T13:54:47;22.30;82.40
3418;DHT22;1722;51.316;12.370;2022-10-16T13:57:15;22.30;82.40
3418;DHT22;1722;51.316;12.370;2022-10-16T13:59:43;22.00;82.90
3418;DHT22;1722;51.316;12.370;2022-10-16T14:02:20;21.80;83.60
3418;DHT22;1722;51.316;12.370;2022-10-16T14:04:48;21.60;84.10
3418;DHT22;1722;51.316;12.370;2022-10-16T14:07:22;21.50;84.70
3418;DHT22;1722;51.316;12.370;2022-10-16T14:09:53;21.40;85.10
3418;DHT22;1722;51.316;12.370;2022-10-16T14:12:21;21.30;85.70
3418;DHT22;1722;51.316;12.370;2022-10-16T14:14:51;21.30;85.40
3418;DHT22;1722;51.316;12.370;2022-10-16T14:17:22;21.30;85.70
3418;DHT22;1722;51.316;12.370;2022-10-16T14:19:52;21.30;85.60
3418;DHT22;1722;51.316;12.370;2022-10-16T14:22:31;21.30;85.10
3418;DHT22;1722;51.316;12.370;2022-10-16T14:25:01;21.40;85.20
3418;DHT22;1722;51.316;12.370;2022-10-16T14:27:30;21.40;85.70
3418;DHT22;1722;51.316;12.370;2022-10-16T14:30:16;21.40;85.30
3418;DHT22;1722;51.316;12.370;2022-10-16T14:32:54;21.40;85.40
3418;DHT22;1722;51.316;12.370;2022-10-16T14:35:28;21.50;86.00
3418;DHT22;1722;51.316;12.370;2022-10-16T14:37:57;21.40;86.30
3418;DHT22;1722;51.316;12.370;2022-10-16T14:40:29;21.40;86.30
3418;DHT22;1722;51.316;12.370;2022-10-16T14:42:58;21.40;86.60
3418;DHT22;1722;51.316;12.370;2022-10-16T14:45:29;21.40;85.80
3418;DHT22;1722;51.316;12.370;2022-10-16T14:48:00;21.40;86.10
3418;DHT22;1722;51.316;12.370;2022-10-16T14:50:28;21.30;86.50
3418;DHT22;1722;51.316;12.370;2022-10-16T14:52:56;21.30;86.80
3418;DHT22;1722;51.316;12.370;2022-10-16T14:55:24;21.30;87.60
3418;DHT22;1722;51.316;12.370;2022-10-16T14:57:53;21.30;86.50
3418;DHT22;1722;51.316;12.370;2022-10-16T15:00:23;21.30;86.80
3418;DHT22;1722;51.316;12.370;2022-10-16T15:02:51;21.30;87.00
3418;DHT22;1722;51.316;12.370;2022-10-16T15:05:20;21.30;86.90
3418;DHT22;1722;51.316;12.370;2022-10-16T15:07:50;21.40;86.70
3418;DHT22;1722;51.316;12.370;2022-10-16T15:10:18;21.50;86.50
3418;DHT22;1722;51.316;12.370;2022-10-16T15:12:46;21.50;86.20
3418;DHT22;1722;51.316;12.370;2022-10-16T15:15:34;21.50;86.80
3418;DHT22;1722;51.316;12.370;2022-10-16T15:18:03;21.40;86.80
3418;DHT22;1722;51.316;12.370;2022-10-16T15:20:32;21.40;87.50
3418;DHT22;1722;51.316;12.370;2022-10-16T15:23:01;21.30;87.10
3418;DHT22;1722;51.316;12.370;2022-10-16T15:25:35;21.20;87.30
3418;DHT22;1722;51.316;12.370;2022-10-16T15:28:04;21.20;87.30
3418;DHT22;1722;51.316;12.370;2022-10-16T15:30:33;21.10;87.90
3418;DHT22;1722;51.316;12.370;2022-10-16T15:33:01;21.00;88.30
3418;DHT22;1722;51.316;12.370;2022-10-16T15:35:29;20.90;88.40
3418;DHT22;1722;51.316;12.370;2022-10-16T15:37:57;21.00;88.60
3418;DHT22;1722;51.316;12.370;2022-10-16T15:40:24;21.00;88.50
3418;DHT22;1722;51.316;12.370;2022-10-16T15:42:52;21.00;88.00
3418;DHT22;1722;51.316;12.370;2022-10-16T15:45:19;21.00;88.10
3418;DHT22;1722;51.316;12.370;2022-10-16T15:47:48;21.00;88.10
3418;DHT22;1722;51.316;12.370;2022-10-16T15:50:16;21.00;88.10
3418;DHT22;1722;51.316;12.370;2022-10-16T15:52:43;21.00;88.20
3418;DHT22;1722;51.316;12.370;2022-10-16T15:55:12;21.00;88.20
3418;DHT22;1722;51.316;12.370;2022-10-16T15:57:40;21.10;87.90
3418;DHT22;1722;51.316;12.370;2022-10-16T16:00:12;21.00;88.10
3418;DHT22;1722;51.316;12.370;2022-10-16T16:02:39;20.80;88.80
3418;DHT22;1722;51.316;12.370;2022-10-16T16:05:09;20.90;88.70
3418;DHT22;1722;51.316;12.370;2022-10-16T16:07:38;20.80;89.00
3418;DHT22;1722;51.316;12.370;2022-10-16T16:10:08;20.90;89.10
3418;DHT22;1722;51.316;12.370;2022-10-16T16:12:37;20.90;88.80
3418;DHT22;1722;51.316;12.370;2022-10-16T16:15:06;20.90;88.90